sensor_id;sensor_type;location;lat;lon;timestamp;P1;durP1;ratioP1;P2;durP2;ratioP2
18387;SDS011;9320;50.256;19.026;2022-08-01T00:01:29;10.32;;;6.18;;
18387;SDS011;9320;50.256;19.026;2022-08-01T00:03:58;11.10;;;5.93;;
18387;SDS011;9320;50.256;19.026;2022-08-01T00:06:26;11.93;;;5.45;;
18387;SDS011;9320;50.256;19.026;2022-08-01T00:08:54;9.98;;;5.65;;
18387;SDS011;9320;50.256;19.026;2022-08-01T00:11:24;9.02;;;5.63;;
18387;SDS011;9320;50.256;19.026;2022-08-01T00:13:52;8.50;;;5.72;;
18387;SDS011;9320;50.256;19.026;2022-08-01T00:16:21;10.23;;;5.60;;
18387;SDS011;9320;50.256;19.026;2022-08-01T00:18:49;9.07;;;5.32;;
18387;SDS011;9320;50.256;19.026;2022-08-01T00:21:18;9.25;;;5.57;;
18387;SDS011;9320;50.256;19.026;2022-08-01T00:23:46;10.65;;;5.68;;
18387;SDS011;9320;50.256;19.026;2022-08-01T00:26:14;10.13;;;5.45;;
18387;SDS011;9320;50.256;19.026;2022-08-01T00:28:44;8.18;;;5.07;;
18387;SDS011;9320;50.256;19.026;2022-08-01T00:31:12;10.52;;;5.47;;
18387;SDS011;9320;50.256;19.026;2022-08-01T00:33:40;8.77;;;5.80;;
18387;SDS011;9320;50.256;19.026;2022-08-01T00:36:08;11.27;;;5.60;;
18387;SDS011;9320;50.256;19.026;2022-08-01T00:38:36;8.35;;;4.85;;
18387;SDS011;9320;50.256;19.026;2022-08-01T00:41:05;7.45;;;5.38;;
18387;SDS011;9320;50.256;19.026;2022-08-01T00:43:33;8.20;;;5.60;;
18387;SDS011;9320;50.256;19.026;2022-08-01T00:46:03;9.82;;;5.28;;
18387;SDS011;9320;50.256;19.026;2022-08-01T00:48:31;7.53;;;5.28;;
18387;SDS011;9320;50.256;19.026;2022-08-01T00:50:59;8.88;;;4.93;;
18387;SDS011;9320;50.256;19.026;2022-08-01T00:53:27;7.85;;;4.97;;
18387;SDS011;9320;50.256;19.026;2022-08-01T00:56:16;8.73;;;4.60;;
18387;SDS011;9320;50.256;19.026;2022-08-01T00:58:45;8.13;;;5.45;;
18387;SDS011;9320;50.256;19.026;2022-08-01T01:01:17;9.43;;;5.20;;
18387;SDS011;9320;50.256;19.026;2022-08-01T01:03:47;11.50;;;4.95;;
18387;SDS011;9320;50.256;19.026;2022-08-01T01:06:26;9.23;;;5.38;;
18387;SDS011;9320;50.256;19.026;2022-08-01T01:09:07;9.05;;;5.72;;
18387;SDS011;9320;50.256;19.026;2022-08-01T01:11:44;9.48;;;5.53;;
18387;SDS011;9320;50.256;19.026;2022-08-01T01:14:18;9.05;;;5.47;;
18387;SDS011;9320;50.256;19.026;2022-08-01T01:16:56;7.30;;;5.18;;
18387;SDS011;9320;50.256;19.026;2022-08-01T01:19:28;9.90;;;4.85;;
18387;SDS011;9320;50.256;19.026;2022-08-01T01:22:05;8.48;;;5.10;;
18387;SDS011;9320;50.256;19.026;2022-08-01T01:24:47;8.20;;;5.55;;
18387;SDS011;9320;50.256;19.026;2022-08-01T01:27:28;9.40;;;5.20;;
18387;SDS011;9320;50.256;19.026;2022-08-01T01:30:08;7.65;;;5.22;;
18387;SDS011;9320;50.256;19.026;2022-08-01T01:32:38;7.50;;;5.32;;
18387;SDS011;9320;50.256;19.026;2022-08-01T01:35:09;6.57;;;5.00;;
18387;SDS011;9320;50.256;19.026;2022-08-01T01:37:41;7.45;;;5.43;;
18387;SDS011;9320;50.256;19.026;2022-08-01T01:40:11;8.38;;;5.70;;
18387;SDS011;9320;50.256;19.026;2022-08-01T01:42:41;7.45;;;5.40;;
18387;SDS011;9320;50.256;19.026;2022-08-01T01:45:11;7.72;;;5.15;;
18387;SDS011;9320;50.256;19.026;2022-08-01T01:47:41;7.82;;;6.00;;
18387;SDS011;9320;50.256;19.026;2022-08-01T01:50:11;7.70;;;5.00;;
18387;SDS011;9320;50.256;19.026;2022-08-01T01:52:41;11.45;;;6.03;;
18387;SDS011;9320;50.256;19.026;2022-08-01T01:55:11;10.90;;;5.25;;
18387;SDS011;9320;50.256;19.026;2022-08-01T01:57:41;7.07;;;5.40;;
18387;SDS011;9320;50.256;19.026;2022-08-01T02:00:13;7.72;;;5.10;;
18387;SDS011;9320;50.256;19.026;2022-08-01T02:02:42;10.07;;;6.25;;
18387;SDS011;9320;50.256;19.026;2022-08-01T02:05:12;10.93;;;5.68;;
18387;SDS011;9320;50.256;19.026;2022-08-01T02:07:41;9.20;;;5.90;;
18387;SDS011;9320;50.256;19.026;2022-08-01T02:10:14;10.48;;;6.10;;
18387;SDS011;9320;50.256;19.026;2022-08-01T02:12:44;8.95;;;5.35;;
18387;SDS011;9320;50.256;19.026;2022-08-01T02:15:17;8.25;;;5.75;;
18387;SDS011;9320;50.256;19.026;2022-08-01T02:17:47;9.13;;;5.85;;
18387;SDS011;9320;50.256;19.026;2022-08-01T02:20:17;8.05;;;5.53;;
18387;SDS011;9320;50.256;19.026;2022-08-01T02:22:46;10.18;;;5.45;;
18387;SDS011;9320;50.256;19.026;2022-08-01T02:25:19;8.25;;;5.95;;
18387;SDS011;9320;50.256;19.026;2022-08-01T02:27:54;11.15;;;6.00;;
18387;SDS011;9320;50.256;19.026;2022-08-01T02:30:29;9.20;;;5.93;;
18387;SDS011;9320;50.256;19.026;2022-08-01T02:33:02;8.10;;;5.60;;
18387;SDS011;9320;50.256;19.026;2022-08-01T02:35:41;9.25;;;5.82;;
18387;SDS011;9320;50.256;19.026;2022-08-01T02:38:32;9.93;;;6.28;;
18387;SDS011;9320;50.256;19.026;2022-08-01T02:41:04;10.75;;;6.65;;
18387;SDS011;9320;50.256;19.026;2022-08-01T02:43:36;8.15;;;6.47;;
18387;SDS011;9320;50.256;19.026;2022-08-01T02:46:10;13.18;;;7.13;;
18387;SDS011;9320;50.256;19.026;2022-08-01T02:48:43;10.93;;;7.45;;
18387;SDS011;9320;50.256;19.026;2022-08-01T02:51:13;12.40;;;6.55;;
18387;SDS011;9320;50.256;19.026;2022-08-01T02:53:43;14.65;;;6.97;;
18387;SDS011;9320;50.256;19.026;2022-08-01T02:56:13;12.80;;;7.53;;
18387;SDS011;9320;50.256;19.026;2022-08-01T02:58:44;13.37;;;7.23;;
18387;SDS011;9320;50.256;19.026;2022-08-01T03:01:17;9.90;;;7.70;;
18387;SDS011;9320;50.256;19.026;2022-08-01T03:03:47;11.83;;;7.30;;
18387;SDS011;9320;50.256;19.026;2022-08-01T03:06:15;14.45;;;6.53;;
18387;SDS011;9320;50.256;19.026;2022-08-01T03:08:45;15.40;;;7.18;;
18387;SDS011;9320;50.256;19.026;2022-08-01T03:11:16;12.23;;;6.90;;
18387;SDS011;9320;50.256;19.026;2022-08-01T03:13:45;13.38;;;7.05;;
18387;SDS011;9320;50.256;19.026;2022-08-01T03:16:17;14.70;;;7.47;;
18387;SDS011;9320;50.256;19.026;2022-08-01T03:18:48;16.25;;;7.93;;
18387;SDS011;9320;50.256;19.026;2022-08-01T03:21:20;15.52;;;8.70;;
18387;SDS011;9320;50.256;19.026;2022-08-01T03:23:50;17.67;;;10.82;;
18387;SDS011;9320;50.256;19.026;2022-08-01T03:26:24;16.80;;;11.52;;
18387;SDS011;9320;50.256;19.026;2022-08-01T03:28:55;19.80;;;12.07;;
18387;SDS011;9320;50.256;19.026;2022-08-01T03:31:27;19.80;;;10.75;;
18387;SDS011;9320;50.256;19.026;2022-08-01T03:33:56;12.15;;;8.98;;
18387;SDS011;9320;50.256;19.026;2022-08-01T03:36:31;16.75;;;10.43;;
18387;SDS011;9320;50.256;19.026;2022-08-01T03:39:01;16.93;;;11.50;;
18387;SDS011;9320;50.256;19.026;2022-08-01T03:41:32;15.45;;;10.95;;
18387;SDS011;9320;50.256;19.026;2022-08-01T03:44:06;19.58;;;9.90;;
18387;SDS011;9320;50.256;19.026;2022-08-01T03:46:41;18.73;;;10.18;;
18387;SDS011;9320;50.256;19.026;2022-08-01T03:49:14;16.60;;;10.90;;
18387;SDS011;9320;50.256;19.026;2022-08-01T03:51:45;25.77;;;14.50;;
18387;SDS011;9320;50.256;19.026;2022-08-01T03:54:16;23.73;;;16.90;;
18387;SDS011;9320;50.256;19.026;2022-08-01T03:56:48;24.55;;;17.55;;
18387;SDS011;9320;50.256;19.026;2022-08-01T03:59:18;30.55;;;19.55;;
18387;SDS011;9320;50.256;19.026;2022-08-01T04:01:49;29.47;;;18.47;;
18387;SDS011;9320;50.256;19.026;2022-08-01T04:04:18;27.60;;;18.15;;
18387;SDS011;9320;50.256;19.026;2022-08-01T04:06:46;29.27;;;19.52;;
18387;SDS011;9320;50.256;19.026;2022-08-01T04:09:17;27.15;;;18.63;;
18387;SDS011;9320;50.256;19.026;2022-08-01T04:11:45;28.17;;;17.23;;
18387;SDS011;9320;50.256;19.026;2022-08-01T04:14:14;24.45;;;14.80;;
18387;SDS011;9320;50.256;19.026;2022-08-01T04:16:42;27.45;;;14.63;;
18387;SDS011;9320;50.256;19.026;2022-08-01T04:19:13;23.58;;;12.65;;
18387;SDS011;9320;50.256;19.026;2022-08-01T04:21:41;19.60;;;11.27;;
18387;SDS011;9320;50.256;19.026;2022-08-01T04:24:10;21.45;;;11.00;;
18387;SDS011;9320;50.256;19.026;2022-08-01T04:26:41;20.40;;;11.27;;
18387;SDS011;9320;50.256;19.026;2022-08-01T04:29:12;15.40;;;9.75;;
18387;SDS011;9320;50.256;19.026;2022-08-01T04:31:45;18.73;;;9.48;;
18387;SDS011;9320;50.256;19.026;2022-08-01T04:34:23;12.82;;;8.68;;
18387;SDS011;9320;50.256;19.026;2022-08-01T04:36:54;12.45;;;8.93;;
18387;SDS011;9320;50.256;19.026;2022-08-01T04:39:24;14.55;;;8.65;;
18387;SDS011;9320;50.256;19.026;2022-08-01T04:41:57;16.40;;;9.15;;
18387;SDS011;9320;50.256;19.026;2022-08-01T04:44:30;19.10;;;9.23;;
18387;SDS011;9320;50.256;19.026;2022-08-01T04:46:59;14.38;;;8.45;;
18387;SDS011;9320;50.256;19.026;2022-08-01T04:49:31;13.55;;;7.95;;
18387;SDS011;9320;50.256;19.026;2022-08-01T04:52:14;16.48;;;8.73;;
18387;SDS011;9320;50.256;19.026;2022-08-01T04:54:49;17.42;;;9.25;;
18387;SDS011;9320;50.256;19.026;2022-08-01T04:57:18;17.25;;;7.78;;
18387;SDS011;9320;50.256;19.026;2022-08-01T04:59:46;15.35;;;8.40;;
18387;SDS011;9320;50.256;19.026;2022-08-01T05:02:16;14.50;;;8.70;;
18387;SDS011;9320;50.256;19.026;2022-08-01T05:04:47;12.45;;;8.32;;
18387;SDS011;9320;50.256;19.026;2022-08-01T05:07:15;14.43;;;8.52;;
18387;SDS011;9320;50.256;19.026;2022-08-01T05:09:43;15.73;;;8.70;;
18387;SDS011;9320;50.256;19.026;2022-08-01T05:12:12;14.57;;;8.32;;
18387;SDS011;9320;50.256;19.026;2022-08-01T05:14:40;16.50;;;8.85;;
18387;SDS011;9320;50.256;19.026;2022-08-01T05:17:09;16.40;;;8.85;;
18387;SDS011;9320;50.256;19.026;2022-08-01T05:19:37;15.85;;;8.77;;
18387;SDS011;9320;50.256;19.026;2022-08-01T05:22:08;15.48;;;7.63;;
18387;SDS011;9320;50.256;19.026;2022-08-01T05:24:37;14.63;;;8.18;;
18387;SDS011;9320;50.256;19.026;2022-08-01T05:27:07;15.48;;;9.27;;
18387;SDS011;9320;50.256;19.026;2022-08-01T05:29:38;13.20;;;8.85;;
18387;SDS011;9320;50.256;19.026;2022-08-01T05:32:10;15.63;;;9.32;;
18387;SDS011;9320;50.256;19.026;2022-08-01T05:34:38;14.38;;;9.15;;
18387;SDS011;9320;50.256;19.026;2022-08-01T05:37:08;16.05;;;8.45;;
18387;SDS011;9320;50.256;19.026;2022-08-01T05:39:36;24.08;;;8.82;;
18387;SDS011;9320;50.256;19.026;2022-08-01T05:42:04;16.83;;;9.60;;
18387;SDS011;9320;50.256;19.026;2022-08-01T05:44:33;20.40;;;9.35;;
18387;SDS011;9320;50.256;19.026;2022-08-01T05:47:01;35.90;;;10.32;;
18387;SDS011;9320;50.256;19.026;2022-08-01T05:49:30;18.38;;;9.05;;
18387;SDS011;9320;50.256;19.026;2022-08-01T05:51:58;28.58;;;9.70;;
18387;SDS011;9320;50.256;19.026;2022-08-01T05:54:30;21.98;;;8.73;;
18387;SDS011;9320;50.256;19.026;2022-08-01T05:56:58;14.40;;;8.30;;
18387;SDS011;9320;50.256;19.026;2022-08-01T05:59:28;12.30;;;7.80;;
18387;SDS011;9320;50.256;19.026;2022-08-01T06:01:56;14.18;;;7.20;;
18387;SDS011;9320;50.256;19.026;2022-08-01T06:04:24;10.40;;;6.50;;
18387;SDS011;9320;50.256;19.026;2022-08-01T06:06:53;12.45;;;6.63;;
18387;SDS011;9320;50.256;19.026;2022-08-01T06:09:21;10.73;;;6.35;;
18387;SDS011;9320;50.256;19.026;2022-08-01T06:11:51;14.73;;;6.95;;
18387;SDS011;9320;50.256;19.026;2022-08-01T06:14:19;9.98;;;5.30;;
18387;SDS011;9320;50.256;19.026;2022-08-01T06:16:47;9.43;;;5.95;;
18387;SDS011;9320;50.256;19.026;2022-08-01T06:19:15;11.77;;;6.13;;
18387;SDS011;9320;50.256;19.026;2022-08-01T06:21:43;9.77;;;5.20;;
18387;SDS011;9320;50.256;19.026;2022-08-01T06:24:11;8.13;;;5.22;;
18387;SDS011;9320;50.256;19.026;2022-08-01T06:26:40;12.05;;;5.20;;
18387;SDS011;9320;50.256;19.026;2022-08-01T06:29:10;23.90;;;7.03;;
18387;SDS011;9320;50.256;19.026;2022-08-01T06:31:39;10.77;;;5.75;;
18387;SDS011;9320;50.256;19.026;2022-08-01T06:34:07;22.70;;;6.43;;
18387;SDS011;9320;50.256;19.026;2022-08-01T06:36:35;20.95;;;6.25;;
18387;SDS011;9320;50.256;19.026;2022-08-01T06:39:04;29.92;;;7.15;;
18387;SDS011;9320;50.256;19.026;2022-08-01T06:41:32;31.20;;;7.50;;
18387;SDS011;9320;50.256;19.026;2022-08-01T06:44:00;20.15;;;5.70;;
18387;SDS011;9320;50.256;19.026;2022-08-01T06:46:32;12.27;;;5.30;;
18387;SDS011;9320;50.256;19.026;2022-08-01T06:49:01;14.38;;;5.40;;
18387;SDS011;9320;50.256;19.026;2022-08-01T06:51:29;10.88;;;5.25;;
18387;SDS011;9320;50.256;19.026;2022-08-01T06:53:58;6.43;;;4.20;;
18387;SDS011;9320;50.256;19.026;2022-08-01T06:56:26;14.63;;;4.80;;
18387;SDS011;9320;50.256;19.026;2022-08-01T06:58:54;31.00;;;6.15;;
18387;SDS011;9320;50.256;19.026;2022-08-01T07:01:27;20.30;;;5.95;;
18387;SDS011;9320;50.256;19.026;2022-08-01T07:04:00;14.18;;;4.90;;
18387;SDS011;9320;50.256;19.026;2022-08-01T07:06:29;18.20;;;5.10;;
18387;SDS011;9320;50.256;19.026;2022-08-01T07:08:57;14.23;;;5.20;;
18387;SDS011;9320;50.256;19.026;2022-08-01T07:11:34;6.53;;;3.78;;
18387;SDS011;9320;50.256;19.026;2022-08-01T07:14:02;7.97;;;4.38;;
18387;SDS011;9320;50.256;19.026;2022-08-01T07:16:31;16.15;;;4.53;;
18387;SDS011;9320;50.256;19.026;2022-08-01T07:19:00;7.78;;;3.97;;
18387;SDS011;9320;50.256;19.026;2022-08-01T07:21:28;6.68;;;3.90;;
18387;SDS011;9320;50.256;19.026;2022-08-01T07:24:06;6.60;;;3.53;;
18387;SDS011;9320;50.256;19.026;2022-08-01T07:26:39;11.45;;;3.80;;
18387;SDS011;9320;50.256;19.026;2022-08-01T07:29:20;8.43;;;3.70;;
18387;SDS011;9320;50.256;19.026;2022-08-01T07:31:49;5.57;;;3.15;;
18387;SDS011;9320;50.256;19.026;2022-08-01T07:34:18;8.65;;;3.63;;
18387;SDS011;9320;50.256;19.026;2022-08-01T07:36:47;6.65;;;3.33;;
18387;SDS011;9320;50.256;19.026;2022-08-01T07:39:15;9.95;;;3.92;;
18387;SDS011;9320;50.256;19.026;2022-08-01T07:41:43;6.68;;;3.22;;
18387;SDS011;9320;50.256;19.026;2022-08-01T07:44:32;10.32;;;5.10;;
18387;SDS011;9320;50.256;19.026;2022-08-01T07:47:00;11.18;;;4.72;;
18387;SDS011;9320;50.256;19.026;2022-08-01T07:49:29;8.93;;;3.63;;
18387;SDS011;9320;50.256;19.026;2022-08-01T07:52:05;7.78;;;3.42;;
18387;SDS011;9320;50.256;19.026;2022-08-01T07:54:33;7.60;;;3.17;;
18387;SDS011;9320;50.256;19.026;2022-08-01T07:57:02;6.20;;;2.65;;
18387;SDS011;9320;50.256;19.026;2022-08-01T07:59:31;5.95;;;2.40;;
18387;SDS011;9320;50.256;19.026;2022-08-01T08:01:59;5.28;;;2.45;;
18387;SDS011;9320;50.256;19.026;2022-08-01T08:04:27;7.20;;;2.35;;
18387;SDS011;9320;50.256;19.026;2022-08-01T08:06:57;7.45;;;2.75;;
18387;SDS011;9320;50.256;19.026;2022-08-01T08:09:25;4.97;;;2.38;;
18387;SDS011;9320;50.256;19.026;2022-08-01T08:11:53;5.85;;;2.67;;
18387;SDS011;9320;50.256;19.026;2022-08-01T08:14:21;4.25;;;2.50;;
18387;SDS011;9320;50.256;19.026;2022-08-01T08:16:58;4.60;;;2.30;;
18387;SDS011;9320;50.256;19.026;2022-08-01T08:19:27;5.47;;;2.55;;
18387;SDS011;9320;50.256;19.026;2022-08-01T08:22:04;7.43;;;2.35;;
18387;SDS011;9320;50.256;19.026;2022-08-01T08:24:33;4.22;;;2.25;;
18387;SDS011;9320;50.256;19.026;2022-08-01T08:27:11;4.90;;;2.38;;
18387;SDS011;9320;50.256;19.026;2022-08-01T08:29:39;4.60;;;2.35;;
18387;SDS011;9320;50.256;19.026;2022-08-01T08:32:08;4.05;;;2.50;;
18387;SDS011;9320;50.256;19.026;2022-08-01T08:34:38;3.38;;;2.15;;
18387;SDS011;9320;50.256;19.026;2022-08-01T08:37:06;2.63;;;2.13;;
18387;SDS011;9320;50.256;19.026;2022-08-01T08:39:35;5.35;;;2.30;;
18387;SDS011;9320;50.256;19.026;2022-08-01T08:42:08;5.40;;;2.90;;
18387;SDS011;9320;50.256;19.026;2022-08-01T08:44:37;7.40;;;2.50;;
18387;SDS011;9320;50.256;19.026;2022-08-01T08:47:10;12.48;;;3.10;;
18387;SDS011;9320;50.256;19.026;2022-08-01T08:49:47;8.13;;;3.00;;
18387;SDS011;9320;50.256;19.026;2022-08-01T08:52:17;4.15;;;2.53;;
18387;SDS011;9320;50.256;19.026;2022-08-01T08:54:47;3.58;;;2.47;;
18387;SDS011;9320;50.256;19.026;2022-08-01T08:57:18;7.80;;;2.78;;
18387;SDS011;9320;50.256;19.026;2022-08-01T08:59:47;7.03;;;2.45;;
18387;SDS011;9320;50.256;19.026;2022-08-01T09:02:18;2.97;;;2.13;;
18387;SDS011;9320;50.256;19.026;2022-08-01T09:04:48;3.97;;;2.55;;
18387;SDS011;9320;50.256;19.026;2022-08-01T09:07:17;5.03;;;2.60;;
18387;SDS011;9320;50.256;19.026;2022-08-01T09:09:45;10.32;;;3.17;;
18387;SDS011;9320;50.256;19.026;2022-08-01T09:12:17;4.50;;;2.80;;
18387;SDS011;9320;50.256;19.026;2022-08-01T09:14:46;4.55;;;2.60;;
18387;SDS011;9320;50.256;19.026;2022-08-01T09:17:19;5.82;;;2.70;;
18387;SDS011;9320;50.256;19.026;2022-08-01T09:19:50;4.05;;;2.58;;
18387;SDS011;9320;50.256;19.026;2022-08-01T09:22:20;9.85;;;3.20;;
18387;SDS011;9320;50.256;19.026;2022-08-01T09:24:59;8.10;;;2.67;;
18387;SDS011;9320;50.256;19.026;2022-08-01T09:27:29;5.22;;;3.05;;
18387;SDS011;9320;50.256;19.026;2022-08-01T09:30:06;8.60;;;2.90;;
18387;SDS011;9320;50.256;19.026;2022-08-01T09:32:37;9.55;;;3.28;;
18387;SDS011;9320;50.256;19.026;2022-08-01T09:35:24;6.57;;;2.83;;
18387;SDS011;9320;50.256;19.026;2022-08-01T09:38:11;5.30;;;3.10;;
18387;SDS011;9320;50.256;19.026;2022-08-01T09:40:48;10.38;;;3.40;;
18387;SDS011;9320;50.256;19.026;2022-08-01T09:43:19;7.72;;;3.28;;
18387;SDS011;9320;50.256;19.026;2022-08-01T09:45:49;4.68;;;3.30;;
18387;SDS011;9320;50.256;19.026;2022-08-01T09:48:19;5.63;;;3.17;;
18387;SDS011;9320;50.256;19.026;2022-08-01T09:50:57;4.50;;;3.08;;
18387;SDS011;9320;50.256;19.026;2022-08-01T09:53:40;4.72;;;3.10;;
18387;SDS011;9320;50.256;19.026;2022-08-01T09:56:18;5.13;;;3.20;;
18387;SDS011;9320;50.256;19.026;2022-08-01T09:58:50;19.13;;;4.20;;
18387;SDS011;9320;50.256;19.026;2022-08-01T10:01:28;8.35;;;3.17;;
18387;SDS011;9320;50.256;19.026;2022-08-01T10:04:10;10.98;;;3.78;;
18387;SDS011;9320;50.256;19.026;2022-08-01T10:06:42;6.10;;;3.50;;
18387;SDS011;9320;50.256;19.026;2022-08-01T10:09:17;7.43;;;4.00;;
18387;SDS011;9320;50.256;19.026;2022-08-01T10:12:06;8.32;;;3.72;;
18387;SDS011;9320;50.256;19.026;2022-08-01T10:14:41;8.40;;;3.65;;
18387;SDS011;9320;50.256;19.026;2022-08-01T10:17:13;7.30;;;3.83;;
18387;SDS011;9320;50.256;19.026;2022-08-01T10:19:45;6.38;;;3.72;;
18387;SDS011;9320;50.256;19.026;2022-08-01T10:22:18;7.45;;;3.70;;
18387;SDS011;9320;50.256;19.026;2022-08-01T10:24:47;9.35;;;3.80;;
18387;SDS011;9320;50.256;19.026;2022-08-01T10:27:16;5.18;;;3.20;;
18387;SDS011;9320;50.256;19.026;2022-08-01T10:30:04;12.55;;;4.10;;
18387;SDS011;9320;50.256;19.026;2022-08-01T10:32:49;7.07;;;3.85;;
18387;SDS011;9320;50.256;19.026;2022-08-01T10:35:20;10.05;;;3.72;;
18387;SDS011;9320;50.256;19.026;2022-08-01T10:38:10;6.32;;;3.78;;
18387;SDS011;9320;50.256;19.026;2022-08-01T10:40:40;5.78;;;3.60;;
18387;SDS011;9320;50.256;19.026;2022-08-01T10:43:09;6.95;;;3.67;;
18387;SDS011;9320;50.256;19.026;2022-08-01T10:45:38;10.15;;;4.65;;
18387;SDS011;9320;50.256;19.026;2022-08-01T10:48:09;7.97;;;3.80;;
18387;SDS011;9320;50.256;19.026;2022-08-01T10:50:46;9.05;;;4.00;;
18387;SDS011;9320;50.256;19.026;2022-08-01T10:53:19;9.20;;;3.95;;
18387;SDS011;9320;50.256;19.026;2022-08-01T10:56:07;5.90;;;4.10;;
18387;SDS011;9320;50.256;19.026;2022-08-01T10:58:42;7.35;;;3.63;;
18387;SDS011;9320;50.256;19.026;2022-08-01T11:01:18;10.98;;;4.10;;
18387;SDS011;9320;50.256;19.026;2022-08-01T11:03:58;6.38;;;3.75;;
18387;SDS011;9320;50.256;19.026;2022-08-01T11:06:41;5.93;;;3.67;;
18387;SDS011;9320;50.256;19.026;2022-08-01T11:09:31;5.40;;;3.53;;
18387;SDS011;9320;50.256;19.026;2022-08-01T11:12:08;5.63;;;3.80;;
18387;SDS011;9320;50.256;19.026;2022-08-01T11:17:55;5.28;;;3.85;;
18387;SDS011;9320;50.256;19.026;2022-08-01T11:20:26;15.68;;;4.22;;
18387;SDS011;9320;50.256;19.026;2022-08-01T11:29:11;6.70;;;4.18;;
18387;SDS011;9320;50.256;19.026;2022-08-01T11:31:47;10.18;;;4.13;;
18387;SDS011;9320;50.256;19.026;2022-08-01T11:34:16;8.80;;;3.88;;
18387;SDS011;9320;50.256;19.026;2022-08-01T11:36:45;6.72;;;4.65;;
18387;SDS011;9320;50.256;19.026;2022-08-01T11:39:29;8.70;;;4.60;;
18387;SDS011;9320;50.256;19.026;2022-08-01T11:42:18;12.13;;;4.55;;
18387;SDS011;9320;50.256;19.026;2022-08-01T11:44:48;8.45;;;4.30;;
18387;SDS011;9320;50.256;19.026;2022-08-01T11:47:17;8.52;;;4.25;;
18387;SDS011;9320;50.256;19.026;2022-08-01T11:50:06;8.18;;;4.32;;
18387;SDS011;9320;50.256;19.026;2022-08-01T11:53:00;7.13;;;4.85;;
18387;SDS011;9320;50.256;19.026;2022-08-01T11:55:30;7.45;;;5.00;;
18387;SDS011;9320;50.256;19.026;2022-08-01T11:58:00;9.35;;;5.07;;
18387;SDS011;9320;50.256;19.026;2022-08-01T12:00:29;7.50;;;4.40;;
18387;SDS011;9320;50.256;19.026;2022-08-01T12:02:59;7.57;;;4.95;;
18387;SDS011;9320;50.256;19.026;2022-08-01T12:05:30;8.57;;;4.82;;
18387;SDS011;9320;50.256;19.026;2022-08-01T12:08:01;8.25;;;4.28;;
18387;SDS011;9320;50.256;19.026;2022-08-01T12:10:30;11.35;;;5.30;;
18387;SDS011;9320;50.256;19.026;2022-08-01T12:13:16;5.10;;;3.63;;
18387;SDS011;9320;50.256;19.026;2022-08-01T12:15:45;7.30;;;4.75;;
18387;SDS011;9320;50.256;19.026;2022-08-01T12:18:20;5.47;;;3.70;;
18387;SDS011;9320;50.256;19.026;2022-08-01T12:20:48;8.18;;;4.15;;
18387;SDS011;9320;50.256;19.026;2022-08-01T12:23:23;5.25;;;3.72;;
18387;SDS011;9320;50.256;19.026;2022-08-01T12:25:51;4.90;;;3.65;;
18387;SDS011;9320;50.256;19.026;2022-08-01T12:28:21;5.43;;;3.63;;
18387;SDS011;9320;50.256;19.026;2022-08-01T12:30:50;6.45;;;3.63;;
18387;SDS011;9320;50.256;19.026;2022-08-01T12:33:20;8.75;;;3.88;;
18387;SDS011;9320;50.256;19.026;2022-08-01T12:35:48;6.60;;;3.58;;
18387;SDS011;9320;50.256;19.026;2022-08-01T12:38:18;4.97;;;3.30;;
18387;SDS011;9320;50.256;19.026;2022-08-01T12:40:48;7.53;;;3.55;;
18387;SDS011;9320;50.256;19.026;2022-08-01T12:43:22;8.00;;;3.42;;
18387;SDS011;9320;50.256;19.026;2022-08-01T12:45:55;4.75;;;2.70;;
18387;SDS011;9320;50.256;19.026;2022-08-01T12:48:25;6.53;;;3.38;;
18387;SDS011;9320;50.256;19.026;2022-08-01T12:50:55;6.75;;;3.03;;
18387;SDS011;9320;50.256;19.026;2022-08-01T12:53:26;5.57;;;3.30;;
18387;SDS011;9320;50.256;19.026;2022-08-01T12:56:06;5.03;;;3.28;;
18387;SDS011;9320;50.256;19.026;2022-08-01T12:58:37;3.53;;;2.80;;
18387;SDS011;9320;50.256;19.026;2022-08-01T13:01:06;4.97;;;3.20;;
18387;SDS011;9320;50.256;19.026;2022-08-01T13:03:35;5.55;;;3.15;;
18387;SDS011;9320;50.256;19.026;2022-08-01T13:06:09;5.32;;;3.00;;
18387;SDS011;9320;50.256;19.026;2022-08-01T13:08:39;8.82;;;3.28;;
18387;SDS011;9320;50.256;19.026;2022-08-01T13:11:07;6.30;;;3.03;;
18387;SDS011;9320;50.256;19.026;2022-08-01T13:13:43;5.93;;;3.53;;
18387;SDS011;9320;50.256;19.026;2022-08-01T13:16:14;7.05;;;3.47;;
18387;SDS011;9320;50.256;19.026;2022-08-01T13:19:03;4.88;;;3.05;;
18387;SDS011;9320;50.256;19.026;2022-08-01T13:21:32;7.18;;;3.10;;
18387;SDS011;9320;50.256;19.026;2022-08-01T13:24:23;4.45;;;2.92;;
18387;SDS011;9320;50.256;19.026;2022-08-01T13:26:52;3.92;;;2.75;;
18387;SDS011;9320;50.256;19.026;2022-08-01T13:29:32;4.40;;;2.70;;
18387;SDS011;9320;50.256;19.026;2022-08-01T13:32:14;5.15;;;3.05;;
18387;SDS011;9320;50.256;19.026;2022-08-01T13:35:00;6.53;;;3.35;;
18387;SDS011;9320;50.256;19.026;2022-08-01T13:37:29;4.75;;;3.25;;
18387;SDS011;9320;50.256;19.026;2022-08-01T13:39:57;6.13;;;3.20;;
18387;SDS011;9320;50.256;19.026;2022-08-01T13:42:26;7.25;;;3.38;;
18387;SDS011;9320;50.256;19.026;2022-08-01T13:44:56;7.28;;;3.33;;
18387;SDS011;9320;50.256;19.026;2022-08-01T13:47:25;5.63;;;3.03;;
18387;SDS011;9320;50.256;19.026;2022-08-01T13:49:57;12.60;;;3.38;;
18387;SDS011;9320;50.256;19.026;2022-08-01T13:52:27;5.97;;;3.42;;
18387;SDS011;9320;50.256;19.026;2022-08-01T13:54:55;4.97;;;3.13;;
18387;SDS011;9320;50.256;19.026;2022-08-01T13:57:24;4.05;;;3.10;;
18387;SDS011;9320;50.256;19.026;2022-08-01T14:00:04;8.48;;;3.60;;
18387;SDS011;9320;50.256;19.026;2022-08-01T14:02:35;7.47;;;3.50;;
18387;SDS011;9320;50.256;19.026;2022-08-01T14:05:04;7.10;;;3.40;;
18387;SDS011;9320;50.256;19.026;2022-08-01T14:07:32;7.72;;;3.47;;
18387;SDS011;9320;50.256;19.026;2022-08-01T14:10:03;4.35;;;3.25;;
18387;SDS011;9320;50.256;19.026;2022-08-01T14:12:44;5.65;;;3.22;;
18387;SDS011;9320;50.256;19.026;2022-08-01T14:15:14;8.63;;;3.28;;
18387;SDS011;9320;50.256;19.026;2022-08-01T14:18:03;4.68;;;3.15;;
18387;SDS011;9320;50.256;19.026;2022-08-01T14:20:34;4.60;;;3.30;;
18387;SDS011;9320;50.256;19.026;2022-08-01T14:23:03;4.00;;;3.22;;
18387;SDS011;9320;50.256;19.026;2022-08-01T14:25:34;4.97;;;3.33;;
18387;SDS011;9320;50.256;19.026;2022-08-01T14:28:23;8.27;;;3.55;;
18387;SDS011;9320;50.256;19.026;2022-08-01T14:30:55;6.10;;;3.42;;
18387;SDS011;9320;50.256;19.026;2022-08-01T14:33:23;4.63;;;3.20;;
18387;SDS011;9320;50.256;19.026;2022-08-01T14:35:52;7.32;;;3.70;;
18387;SDS011;9320;50.256;19.026;2022-08-01T14:38:40;6.82;;;3.80;;
18387;SDS011;9320;50.256;19.026;2022-08-01T14:41:12;5.10;;;3.63;;
18387;SDS011;9320;50.256;19.026;2022-08-01T14:43:40;7.32;;;3.40;;
18387;SDS011;9320;50.256;19.026;2022-08-01T14:46:10;7.32;;;4.10;;
18387;SDS011;9320;50.256;19.026;2022-08-01T14:48:39;5.72;;;3.83;;
18387;SDS011;9320;50.256;19.026;2022-08-01T14:51:07;5.75;;;3.90;;
18387;SDS011;9320;50.256;19.026;2022-08-01T14:53:36;7.00;;;3.88;;
18387;SDS011;9320;50.256;19.026;2022-08-01T14:56:08;9.32;;;4.32;;
18387;SDS011;9320;50.256;19.026;2022-08-01T14:58:36;9.15;;;3.95;;
18387;SDS011;9320;50.256;19.026;2022-08-01T15:01:04;6.70;;;3.30;;
18387;SDS011;9320;50.256;19.026;2022-08-01T15:03:34;6.93;;;4.00;;
18387;SDS011;9320;50.256;19.026;2022-08-01T15:06:02;7.38;;;3.83;;
18387;SDS011;9320;50.256;19.026;2022-08-01T15:08:32;6.90;;;4.10;;
18387;SDS011;9320;50.256;19.026;2022-08-01T15:11:01;5.60;;;3.90;;
18387;SDS011;9320;50.256;19.026;2022-08-01T15:13:29;6.72;;;4.00;;
18387;SDS011;9320;50.256;19.026;2022-08-01T15:15:57;8.95;;;4.20;;
18387;SDS011;9320;50.256;19.026;2022-08-01T15:18:26;8.13;;;4.00;;